首页
METAR-TAF:

METAR-TAF

机场 :

法戈, 北达科他州, 美国

纬度: 46-55-31N, 经度: 096-48-40W, 海拔: 274米

当前天气观测

该预报发布于1小时和9分钟前的20:53 UTC
风速9节,风向
温度 23°C
湿度 36%
气压 1006 hPa
能見度: 16.1公里
天空无云

METAR: KFAR 262053Z 36009KT 10SM CLR 23/07 A2972 RMK AO2 SLP064 T02280067 56007

时间: 17:02 (22:02 UTC)

预报

该预报发布于4小时和42分钟前的17:20 UTC
预报有效从26日的 18点(UTC)到 27日的 18点(UTC)
风速5节,风向东转东北
能見度: 10公里
少量云层高于25000英尺
从 27日的 0000点(UTC)
风速5节,风向
能見度: 10公里
多云层高于8000英尺
从 27日的 0800点(UTC)
风速9节,风向
能見度: 9.7公里
散云层高于3500英尺
多云层高于6000英尺
轻雾, 附近有阵雨
从 27日的 1500点(UTC)
风速14节,风向
能見度: 10公里
散云层高于2500英尺
多云层高于4500英尺

TAF: KFAR 261720Z 2618/2718 07005KT P6SM FEW250 FM270000 08005KT P6SM BKN080 FM270800 35009KT 6SM BR VCSH SCT035 BKN060 FM271500 35014KT P6SM SCT025 BKN045

超过4000个机场的气象观测和天气预报(METAR&TAF报告)。

可查询的气象台以黄色和红色小点在地图上表示。

将鼠标移到小点上方,可查看气象台名称。

然后点击查看天气观测和预报。

如需切换地图:点击带黑十字的绿色按钮放大地图;点击带横线的绿色按钮缩小地图;或者点击绿色箭头查看邻近地区的地图。


METAR-TAF: